Time;durP1;ratioP1;P1;durP2;ratioP2;P2;SDS_P1;SDS_P2;PMS_P1;PMS_P2;Temp;Humidity;BMP_temperature;BMP_pressure;BME280_temperature;BME280_humidity;BME280_pressure;Samples;Min_cycle;Max_cycle;Signal;HPM_P1;HPM_P2
2023/03/15 00:01:51;;;;;;;0.10;0.10;;;;;;;12.93;27.75;94139.25;5028292;28;20448;-63
2023/03/15 00:04:18;;;;;;;0.80;0.80;;;;;;;12.79;27.53;94125.25;5028465;28;20982;-64
2023/03/15 00:06:47;;;;;;;0.00;0.00;;;;;;;12.84;27.55;94119.94;5028714;28;20971;-62
2023/03/15 00:09:14;;;;;;;0.50;0.50;;;;;;;12.95;27.42;94121.34;5029143;28;20540;-65
2023/03/15 00:11:41;;;;;;;0.00;0.00;;;;;;;12.88;26.65;94120.16;5028411;28;20450;-61
2023/03/15 00:14:09;;;;;;;0.40;0.40;;;;;;;12.71;27.17;94115.41;5028355;28;21060;-61
2023/03/15 00:16:36;;;;;;;0.33;0.23;;;;;;;12.68;27.11;94113.34;5028995;28;20959;-63
2023/03/15 00:19:03;;;;;;;0.00;0.00;;;;;;;12.77;27.04;94124.75;5027437;28;20442;-63
2023/03/15 00:21:29;;;;;;;0.63;0.50;;;;;;;12.64;27.58;94114.22;5028067;28;20443;-63
2023/03/15 00:23:56;;;;;;;0.10;0.10;;;;;;;12.71;27.77;94120.69;5028070;28;20459;-65
2023/03/15 00:26:23;;;;;;;0.10;0.10;;;;;;;12.81;27.07;94115.25;5027956;28;20479;-65
2023/03/15 00:28:50;;;;;;;4.03;2.00;;;;;;;12.91;26.80;94125.59;5026224;28;20523;-64
2023/03/15 00:31:19;;;;;;;0.10;0.10;;;;;;;12.92;27.54;94126.38;5028247;28;20447;-61
2023/03/15 00:33:52;;;;;;;0.63;0.63;;;;;;;12.83;27.41;94122.84;5007695;28;20445;-62
2023/03/15 00:36:23;;;;;;;0.20;0.20;;;;;;;12.68;27.73;94107.31;5021447;28;20444;-64
2023/03/15 00:38:54;;;;;;;0.00;0.00;;;;;;;12.92;27.85;94106.13;5026960;28;20501;-65
2023/03/15 00:41:22;;;;;;;0.90;0.57;;;;;;;12.96;27.33;94101.84;5027833;28;20455;-60
2023/03/15 00:43:50;;;;;;;0.50;0.50;;;;;;;12.96;27.17;94101.06;5028074;28;20468;-63
2023/03/15 00:46:18;;;;;;;0.23;0.23;;;;;;;13.10;27.26;94092.16;5027778;28;20479;-62
2023/03/15 00:48:49;;;;;;;0.00;0.00;;;;;;;13.01;nan;94093.88;5027128;28;20443;-61
2023/03/15 00:51:20;;;;;;;0.00;0.00;;;;;;;13.11;26.97;94092.94;5027654;28;20450;-61
2023/03/15 00:53:48;;;;;;;0.33;0.33;;;;;;;12.90;27.57;94097.75;5028285;28;20451;-62
2023/03/15 00:56:21;;;;;;;0.03;0.03;;;;;;;12.74;27.78;94093.81;5027443;28;20523;-62
2023/03/15 00:58:48;;;;;;;4.00;1.33;;;;;;;12.65;28.24;94095.53;5028225;28;20447;-62
2023/03/15 01:01:20;;;;;;;0.10;0.10;;;;;;;12.43;28.72;94084.84;5026254;28;20439;-64
2023/03/15 01:03:48;;;;;;;0.50;0.50;;;;;;;12.51;28.59;94092.06;5026647;28;20955;-63
2023/03/15 01:06:23;;;;;;;0.33;0.33;;;;;;;12.38;28.85;94084.91;5027644;28;20545;-64
2023/03/15 01:08:50;;;;;;;6.50;0.87;;;;;;;12.09;29.21;94077.19;5029686;28;20446;-63
2023/03/15 01:11:23;;;;;;;1.80;1.13;;;;;;;12.24;28.61;94078.81;5027570;28;20448;-61
2023/03/15 01:13:51;;;;;;;0.00;0.00;;;;;;;12.35;29.05;94074.19;5027626;28;21045;-61
2023/03/15 01:16:18;;;;;;;0.67;0.67;;;;;;;12.42;28.81;94075.41;5018867;28;20448;-60
2023/03/15 01:18:45;;;;;;;1.37;0.93;;;;;;;12.35;28.67;94068.94;5023745;28;20920;-62
2023/03/15 01:21:13;;;;;;;0.03;0.03;;;;;;;12.43;28.49;94066.44;5025935;28;20499;-61
2023/03/15 01:23:40;;;;;;;2.67;1.63;;;;;;;12.28;28.96;94064.03;5026114;28;20551;-64
2023/03/15 01:26:11;;;;;;;0.40;0.40;;;;;;;12.40;28.78;94061.78;5025884;28;20472;-63
2023/03/15 01:28:38;;;;;;;0.10;0.10;;;;;;;12.23;29.11;94058.88;5026077;28;21056;-62
2023/03/15 01:31:05;;;;;;;0.20;0.20;;;;;;;12.10;29.30;94031.47;5025786;28;20456;-64
2023/03/15 01:33:32;;;;;;;0.13;0.13;;;;;;;12.18;28.54;94048.44;5027565;28;20450;-66
2023/03/15 01:36:06;;;;;;;0.20;0.20;;;;;;;12.40;28.75;94056.50;5026146;28;20447;-63
2023/03/15 01:38:34;;;;;;;0.00;0.00;;;;;;;12.25;29.40;94054.13;5026500;28;20463;-63
2023/03/15 01:41:01;;;;;;;0.17;0.17;;;;;;;12.08;29.28;94046.75;5030563;28;20455;-61
2023/03/15 01:43:31;;;;;;;0.20;0.20;;;;;;;12.19;29.09;94053.41;5029751;28;20517;-64
2023/03/15 01:46:01;;;;;;;0.13;0.13;;;;;;;11.99;29.61;94050.28;5016126;28;20829;-61
2023/03/15 01:48:43;;;;;;;0.10;0.10;;;;;;;12.02;29.62;94039.22;5030182;28;20451;-63
2023/03/15 01:51:22;;;;;;;0.00;0.00;;;;;;;12.04;30.05;94039.72;5029860;28;20479;-63
2023/03/15 01:54:03;;;;;;;1.07;0.97;;;;;;;12.06;29.25;94029.72;5030852;28;20428;-62
2023/03/15 01:56:35;;;;;;;0.73;0.60;;;;;;;12.06;29.50;94024.47;5029200;28;20447;-61
2023/03/15 01:59:04;;;;;;;0.77;0.77;;;;;;;12.13;29.46;94028.28;5029768;28;20839;-64
2023/03/15 02:01:34;;;;;;;0.50;0.40;;;;;;;11.79;30.23;94024.31;5028866;28;20440;-64
2023/03/15 02:04:06;;;;;;;1.30;0.40;;;;;;;12.00;29.72;94022.97;5031706;28;20455;-62
2023/03/15 02:06:38;;;;;;;4.80;1.77;;;;;;;11.80;30.16;94025.88;5029283;28;20480;-60
2023/03/15 02:09:13;;;;;;;0.67;0.67;;;;;;;11.85;29.74;94017.94;5029749;28;20440;-62
2023/03/15 02:11:42;;;;;;;0.13;0.13;;;;;;;11.83;29.96;94020.84;5029450;28;20838;-63
2023/03/15 02:14:13;;;;;;;0.30;0.30;;;;;;;11.94;29.47;94000.47;5030374;28;20447;-61
2023/03/15 02:16:43;;;;;;;0.33;0.33;;;;;;;11.81;29.89;94006.44;5030609;28;20561;-60
2023/03/15 02:19:47;;;;;;;0.10;0.10;;;;;;;11.69;30.08;93998.22;5032264;28;20938;-60
2023/03/15 02:22:29;;;;;;;0.20;0.20;;;;;;;11.62;30.58;93997.75;5028301;28;20998;-61
2023/03/15 02:25:07;;;;;;;2.83;2.17;;;;;;;11.61;30.84;93993.56;5030284;28;20456;-61
2023/03/15 02:27:36;;;;;;;0.00;0.00;;;;;;;11.11;31.08;93972.16;5032637;28;20491;-63
2023/03/15 02:30:04;;;;;;;0.30;0.30;;;;;;;11.16;31.03;93990.47;5031318;28;20483;-61
2023/03/15 02:32:31;;;;;;;0.80;0.80;;;;;;;11.43;30.75;93989.09;5027772;28;20470;-63
2023/03/15 02:34:58;;;;;;;0.00;0.00;;;;;;;11.08;30.70;93985.06;5028786;28;20448;-62
2023/03/15 02:37:25;;;;;;;0.10;0.10;;;;;;;11.06;30.78;93993.19;5026527;28;20970;-63
2023/03/15 02:39:59;;;;;;;0.63;0.63;;;;;;;11.19;29.98;93995.16;5029000;28;20498;-66
2023/03/15 02:42:27;;;;;;;0.07;0.07;;;;;;;11.34;29.90;94001.25;5028569;28;20483;-64
2023/03/15 02:44:56;;;;;;;0.30;0.30;;;;;;;11.51;29.80;93991.88;5031626;28;20445;-63
2023/03/15 02:47:28;;;;;;;;;;;;;;;11.46;29.28;93996.41;5029468;28;20502;-62
2023/03/15 02:49:56;;;;;;;;;;;;;;;11.55;29.61;93992.09;5029437;28;20440;-61
2023/03/15 02:52:23;;;;;;;;;;;;;;;11.68;29.12;93989.56;5027876;28;20052;-62
2023/03/15 02:54:50;;;;;;;;;;;;;;;11.55;29.40;93984.97;5030196;28;19957;-62
2023/03/15 02:57:17;;;;;;;;;;;;;;;11.57;29.39;93982.09;5028382;28;19950;-64
2023/03/15 02:59:49;;;;;;;;;;;;;;;11.52;29.66;93987.38;5028553;28;20004;-64
2023/03/15 03:02:16;;;;;;;;;;;;;;;11.75;29.31;93976.09;5028458;28;19952;-62
2023/03/15 03:04:43;;;;;;;;;;;;;;;11.49;29.53;93974.84;5028533;28;19950;-62
2023/03/15 03:07:10;;;;;;;;;;;;;;;11.34;29.30;93975.81;5044836;28;19992;-61
2023/03/15 03:09:50;;;;;;;;;;;;;;;11.27;29.36;93979.84;5030696;28;19945;-66
2023/03/15 03:12:18;;;;;;;;;;;;;;;11.45;29.67;93969.38;5027864;28;19990;-62
2023/03/15 03:14:46;;;;;;;;;;;;;;;11.37;29.88;93958.75;5028513;28;20005;-66
2023/03/15 03:17:16;;;;;;;;;;;;;;;11.37;29.83;93958.75;5014981;28;20003;-65
2023/03/15 03:19:43;;;;;;;;;;;;;;;11.31;29.89;93959.88;5038734;28;19954;-64
2023/03/15 03:22:12;;;;;;;;;;;;;;;11.30;30.08;93953.84;5027864;28;19943;-62
2023/03/15 03:24:44;;;;;;;;;;;;;;;11.26;29.93;93952.09;5028773;28;19996;-62
2023/03/15 03:27:14;;;;;;;;;;;;;;;11.20;30.18;93953.97;5027322;28;20444;-65
2023/03/15 03:29:43;;;;;;;;;;;;;;;11.37;30.04;93953.50;5028592;28;20025;-63
2023/03/15 03:32:11;;;;;;;;;;;;;;;11.50;30.14;93953.56;5027991;28;20619;-63
2023/03/15 03:34:38;;;;;;;;;;;;;;;11.68;29.66;93954.66;5044976;28;19940;-64
2023/03/15 03:37:05;;;;;;;;;;;;;;;11.56;30.09;93941.16;5028651;28;19959;-60
2023/03/15 03:39:47;;;;;;;;;;;;;;;11.65;29.71;93939.50;5028154;28;20394;-61
2023/03/15 03:42:15;;;;;;;;;;;;;;;11.59;30.59;93940.59;5027682;28;19953;-65
2023/03/15 03:44:41;;;;;;;;;;;;;;;11.49;30.26;93932.88;5027724;28;19944;-63
2023/03/15 03:47:08;;;;;;;;;;;;;;;11.61;30.44;93934.00;5027532;28;20008;-62
2023/03/15 03:49:35;;;;;;;;;;;;;;;11.39;30.64;93935.63;5027494;28;20419;-61
2023/03/15 03:52:02;;;;;;;;;;;;;;;11.21;30.66;93930.09;5027512;28;19955;-64
2023/03/15 03:54:30;;;;;;;;;;;;;;;11.31;30.93;93933.66;5044301;28;20412;-63
2023/03/15 03:56:57;;;;;;;;;;;;;;;10.93;30.90;93928.34;5027782;28;20400;-61
2023/03/15 03:59:28;;;;;;;;;;;;;;;11.22;30.68;93925.66;5027964;28;19968;-63
2023/03/15 04:02:01;;;;;;;;;;;;;;;11.46;30.61;93931.59;5029751;28;20040;-62
2023/03/15 04:04:29;;;;;;;;;;;;;;;11.47;30.27;93929.75;5028699;28;20002;-62
2023/03/15 04:06:56;;;;;;;;;;;;;;;11.47;30.55;93921.88;5028667;28;19979;-63
2023/03/15 04:09:28;;;;;;;;;;;;;;;11.33;30.74;93926.28;5027893;28;19986;-64
2023/03/15 04:11:55;;;;;;;;;;;;;;;11.28;30.88;93913.25;5027124;28;19949;-63
2023/03/15 04:14:24;;;;;;;;;;;;;;;11.35;31.14;93913.66;5027296;28;19945;-64
2023/03/15 04:16:53;;;;;;;;;;;;;;;11.31;31.23;93915.28;5027303;28;20042;-61
2023/03/15 04:19:21;;;;;;;;;;;;;;;11.41;30.88;93917.75;5027572;28;19948;-61
2023/03/15 04:21:51;;;;;;;;;;;;;;;11.36;30.98;93909.97;5026890;28;19945;-63
2023/03/15 04:24:38;;;;;;;;;;;;;;;11.40;30.90;93916.22;5029361;28;20500;-60
2023/03/15 04:27:13;;;;;;;;;;;;;;;11.53;31.00;93905.03;5026745;28;19967;-63
2023/03/15 04:30:04;;;;;;;;;;;;;;;11.40;31.05;93910.97;5028913;28;20023;-62
2023/03/15 04:32:38;;;;;;;;;;;;;;;11.35;31.18;93916.28;5026814;28;20410;-62
2023/03/15 04:35:25;;;;;;;;;;;;;;;11.14;31.03;93882.47;5016372;28;20362;-60
2023/03/15 04:37:59;;;;;;;;;;;;;;;11.33;30.91;93910.56;5031626;28;20033;-63
2023/03/15 04:40:45;;;;;;;;;;;;;;;11.44;31.37;93911.97;5028243;28;19992;-62
2023/03/15 04:43:25;;;;;;;;;;;;;;;11.37;31.45;93907.06;5018884;28;20608;-62
2023/03/15 04:46:14;;;;;;;;;;;;;;;11.29;31.72;93909.56;5025974;28;20034;-62
2023/03/15 04:49:00;;;;;;;;;;;;;;;11.24;31.57;93908.53;5023292;28;19972;-62
2023/03/15 04:51:45;;;;;;;;;;;;;;;11.37;32.14;93907.06;5027878;28;20003;-60
2023/03/15 04:54:44;;;;;;;;;;;;;;;11.39;31.76;93910.19;5003152;28;20529;-63
2023/03/15 04:57:22;;;;;;;;;;;;;;;11.35;32.32;93924.16;5026863;28;19951;-63
2023/03/15 05:00:08;;;;;;;;;;;;;;;11.45;32.00;93913.53;5027488;28;20428;-63
2023/03/15 05:03:01;;;;;;;;;;;;;;;11.43;31.96;93905.16;5017521;28;19951;-62
2023/03/15 05:05:54;;;;;;;;;;;;;;;11.37;32.51;93906.31;5027198;28;20094;-63
2023/03/15 05:08:54;;;;;;;;;;;;;;;11.49;32.14;93914.50;5038097;28;19992;-63
2023/03/15 05:11:32;;;;;;;;;;;;;;;11.22;31.96;93917.78;5044062;28;19998;-65
2023/03/15 05:14:28;;;;;;;;;;;;;;;11.03;32.00;93909.88;5025806;28;20652;-64
2023/03/15 05:17:15;;;;;;;;;;;;;;;11.48;32.23;93910.34;5034703;28;19944;-63
2023/03/15 05:19:53;;;;;;;;;;;;;;;11.55;31.50;93914.16;5031820;28;20331;-64
2023/03/15 05:22:39;;;;;;;;;;;;;;;11.64;34.59;93911.69;5027907;28;19948;-63
2023/03/15 05:25:24;;;;;;;;;;;;;;;11.66;34.44;93917.44;5032354;28;20513;-62
2023/03/15 05:28:17;;;;;;;;;;;;;;;11.97;32.24;93908.03;5031183;28;20035;-62
2023/03/15 05:30:58;;;;;;;;;;;;;;;11.95;31.89;93912.81;5020500;28;19953;-62
2023/03/15 05:33:46;;;;;;;;;;;;;;;11.98;31.82;93904.34;5032072;28;19959;-63
2023/03/15 05:36:33;;;;;;;;;;;;;;;11.95;31.65;93897.81;5031987;28;20025;-65
2023/03/15 05:39:35;;;;;;;;;;;;;;;11.96;31.94;93898.59;5030267;28;19950;-64
2023/03/15 05:42:24;;;;;;;;;;;;;;;11.99;31.86;93898.00;5021786;28;20415;-64
2023/03/15 05:45:14;;;;;;;;;;;;;;;11.95;31.75;93907.56;5035083;28;19949;-62
2023/03/15 05:47:47;;;;;;;;;;;;;;;11.94;31.67;93904.13;5033278;28;20085;-64
2023/03/15 05:50:49;;;;;;;;;;;;;;;12.06;31.69;93898.44;5023748;28;20626;-63
2023/03/15 05:53:34;;;;;;;;;;;;;;;12.00;31.02;93892.50;5031256;28;19948;-63
2023/03/15 05:56:30;;;;;;;;;;;;;;;11.95;30.86;93897.06;5031141;28;19950;-61
2023/03/15 05:59:26;;;;;;;;;;;;;;;11.98;30.75;93899.09;5015899;28;19946;-63
2023/03/15 06:02:10;;;;;;;;;;;;;;;12.04;30.82;93906.59;5029819;28;19952;-64
2023/03/15 06:04:46;;;;;;;;;;;;;;;11.70;31.35;93905.28;5032881;28;20390;-64
2023/03/15 06:07:16;;;;;;;;;;;;;;;11.75;31.84;93908.63;5030775;28;19964;-63
2023/03/15 06:09:43;;;;;;;;;;;;;;;12.29;31.60;93900.13;5031046;28;19991;-64
2023/03/15 06:12:10;;;;;;;;;;;;;;;12.46;32.26;93897.75;5030093;28;20430;-65
2023/03/15 06:14:39;;;;;;;;;;;;;;;12.40;31.82;93895.47;5030988;28;20347;-63
2023/03/15 06:17:07;;;;;;;9.10;0.73;;;;;;;12.44;32.05;93889.38;5029787;28;20997;-64
2023/03/15 06:19:34;;;;;;;5.97;3.07;;;;;;;12.71;30.57;93888.59;5030324;28;20440;-63
2023/03/15 06:22:03;;;;;;;0.10;0.10;;;;;;;12.18;31.72;93875.91;5029548;28;20476;-62
2023/03/15 06:24:40;;;;;;;0.40;0.40;;;;;;;12.30;31.25;93898.31;5030496;28;20530;-62
2023/03/15 06:27:07;;;;;;;1.37;1.27;;;;;;;12.40;30.68;93903.34;5030882;28;20471;-62
2023/03/15 06:29:34;;;;;;;3.03;1.03;;;;;;;12.48;30.46;93895.56;5030266;28;20436;-62
2023/03/15 06:32:03;;;;;;;1.43;1.27;;;;;;;12.74;30.70;93890.63;5029253;28;20439;-64
2023/03/15 06:34:31;;;;;;;0.03;0.03;;;;;;;12.87;30.56;93879.34;5030243;28;20484;-61
2023/03/15 06:36:58;;;;;;;1.67;1.57;;;;;;;12.83;30.42;93876.50;5016675;28;20201;-63
2023/03/15 06:39:25;;;;;;;1.10;0.97;;;;;;;12.95;30.62;93871.56;5029658;28;20443;-62
2023/03/15 06:41:52;;;;;;;0.20;0.20;;;;;;;13.06;30.98;93890.56;5029047;28;20448;-64
2023/03/15 06:44:21;;;;;;;0.20;0.20;;;;;;;13.13;30.22;93891.72;5030773;28;20510;-62
2023/03/15 06:46:53;;;;;;;9.23;0.93;;;;;;;13.00;30.60;93881.97;5029368;28;20439;-65
2023/03/15 06:49:20;;;;;;;2.73;1.33;;;;;;;13.16;30.44;93883.22;5029479;28;20531;-63
2023/03/15 06:51:48;;;;;;;23.87;2.83;;;;;;;13.35;30.25;93871.78;5029177;28;20446;-61
2023/03/15 06:54:14;;;;;;;0.77;0.77;;;;;;;13.41;30.11;93867.97;5029556;28;20455;-62
2023/03/15 06:56:42;;;;;;;1.67;1.57;;;;;;;13.68;30.43;93876.56;5029242;28;20436;-63
2023/03/15 06:59:09;;;;;;;2.43;0.53;;;;;;;13.67;30.04;93874.19;5031204;28;20455;-64
2023/03/15 07:01:35;;;;;;;0.20;0.20;;;;;;;13.46;30.03;93868.63;5030185;28;20486;-63
2023/03/15 07:04:02;;;;;;;1.90;1.60;;;;;;;13.60;30.40;93873.84;5030797;28;20475;-62
2023/03/15 07:06:29;;;;;;;0.50;0.50;;;;;;;13.48;30.49;93861.22;5030704;28;20468;-63
2023/03/15 07:08:56;;;;;;;0.07;0.07;;;;;;;13.58;29.72;93866.25;5029120;28;20498;-64
2023/03/15 07:11:23;;;;;;;0.40;0.40;;;;;;;13.32;31.64;93869.75;5030424;28;20985;-61
2023/03/15 07:13:50;;;;;;;1.10;1.00;;;;;;;13.47;31.36;93870.19;5031191;28;20540;-62
2023/03/15 07:16:17;;;;;;;0.37;0.37;;;;;;;13.64;31.29;93853.75;5032469;28;20455;-61
2023/03/15 07:18:44;;;;;;;0.17;0.17;;;;;;;13.79;30.19;93850.75;5030466;28;20478;-62
2023/03/15 07:21:11;;;;;;;0.10;0.10;;;;;;;13.73;30.53;93858.00;5029990;28;20452;-64
2023/03/15 07:23:38;;;;;;;0.10;0.10;;;;;;;13.70;30.31;93858.63;5030626;28;20691;-62
2023/03/15 07:26:04;;;;;;;0.30;0.30;;;;;;;13.95;31.04;93867.75;5030026;28;20436;-62
2023/03/15 07:28:31;;;;;;;0.00;0.00;;;;;;;13.93;30.31;93862.78;5028845;28;20480;-64
2023/03/15 07:31:01;;;;;;;0.00;0.00;;;;;;;14.21;30.39;93864.16;5029792;28;20557;-62
2023/03/15 07:33:30;;;;;;;1.23;1.13;;;;;;;14.04;30.78;93852.78;5031912;28;20810;-63
2023/03/15 07:35:58;;;;;;;0.63;0.63;;;;;;;14.27;30.26;93854.31;5030311;28;20965;-63
2023/03/15 07:38:29;;;;;;;0.57;0.57;;;;;;;14.24;30.44;93849.63;5028683;28;20966;-62
2023/03/15 07:40:57;;;;;;;0.53;0.53;;;;;;;14.32;30.42;93859.47;5029544;28;20459;-63
2023/03/15 07:43:24;;;;;;;0.10;0.10;;;;;;;14.19;29.72;93870.84;5017296;28;20495;-63
2023/03/15 07:46:04;;;;;;;0.33;0.33;;;;;;;14.44;29.21;93867.56;5028158;28;20459;-62
2023/03/15 07:48:31;;;;;;;0.00;0.00;;;;;;;14.37;29.25;93861.97;5031136;28;20522;-62
2023/03/15 07:50:58;;;;;;;1.50;1.17;;;;;;;14.26;29.45;93860.66;5029578;28;20470;-61
2023/03/15 07:53:25;;;;;;;0.87;0.73;;;;;;;14.42;29.18;93864.47;5030169;28;20444;-63
2023/03/15 07:55:53;;;;;;;0.63;0.63;;;;;;;14.73;29.09;93844.13;5030241;28;20514;-61
2023/03/15 07:58:21;;;;;;;0.10;0.10;;;;;;;15.31;28.96;93848.28;5029831;28;20889;-62
2023/03/15 08:00:47;;;;;;;0.00;0.00;;;;;;;15.47;28.80;93857.31;5028864;28;20989;-65
2023/03/15 08:03:14;;;;;;;0.17;0.17;;;;;;;15.41;27.52;93854.03;5029818;28;20990;-61
2023/03/15 08:05:42;;;;;;;0.77;0.77;;;;;;;15.25;28.83;93845.75;5029476;28;20467;-62
2023/03/15 08:08:08;;;;;;;0.20;0.20;;;;;;;15.45;28.71;93841.00;5029167;28;20549;-63
2023/03/15 08:10:35;;;;;;;6.53;2.23;;;;;;;15.58;28.87;93840.06;5028811;28;20440;-61
2023/03/15 08:13:02;;;;;;;0.40;0.40;;;;;;;15.83;28.98;93839.28;5028139;28;20448;-64
2023/03/15 08:15:29;;;;;;;0.47;0.47;;;;;;;14.85;28.39;93833.75;5029453;28;20455;-64
2023/03/15 08:17:58;;;;;;;0.67;0.67;;;;;;;15.49;28.69;93834.03;5029269;28;20521;-62
2023/03/15 08:20:26;;;;;;;0.20;0.20;;;;;;;15.56;28.95;93813.22;5029422;28;20965;-62
2023/03/15 08:22:55;;;;;;;0.10;0.10;;;;;;;15.99;27.99;93806.78;5029047;28;20505;-62
2023/03/15 08:25:23;;;;;;;0.13;0.13;;;;;;;16.18;28.68;93803.78;5029567;28;20471;-63
2023/03/15 08:27:50;;;;;;;0.10;0.10;;;;;;;16.04;27.64;93797.88;5028734;28;20471;-62
2023/03/15 08:30:19;;;;;;;0.20;0.20;;;;;;;15.81;27.17;93804.47;5029248;28;20436;-61
2023/03/15 08:32:48;;;;;;;0.10;0.10;;;;;;;15.44;27.66;93810.44;5028598;28;20455;-61
2023/03/15 08:35:16;;;;;;;0.07;0.07;;;;;;;16.44;26.84;93793.84;5029222;28;20836;-64
2023/03/15 08:37:46;;;;;;;0.10;0.10;;;;;;;16.60;27.34;93805.50;5028504;28;20982;-63
2023/03/15 08:40:17;;;;;;;0.10;0.10;;;;;;;16.54;26.41;93805.97;5029764;28;20501;-64
2023/03/15 08:42:44;;;;;;;0.00;0.00;;;;;;;16.47;27.23;93806.50;5028049;28;20865;-63
2023/03/15 08:45:11;;;;;;;0.77;0.50;;;;;;;16.60;26.66;93804.72;5028224;28;20433;-62
2023/03/15 08:47:38;;;;;;;0.63;0.33;;;;;;;16.83;26.82;93809.41;5027729;28;20464;-63
2023/03/15 08:50:09;;;;;;;1.13;0.87;;;;;;;16.87;26.75;93791.81;5030421;28;20497;-63
2023/03/15 08:52:37;;;;;;;0.27;0.27;;;;;;;16.82;26.99;93802.56;5032032;28;20447;-62
2023/03/15 08:55:04;;;;;;;0.83;0.73;;;;;;;16.63;27.28;93812.78;5032032;28;20471;-63
2023/03/15 08:57:32;;;;;;;0.20;0.20;;;;;;;16.66;27.26;93814.78;5031229;28;20448;-64
2023/03/15 09:00:00;;;;;;;0.20;0.20;;;;;;;16.46;27.22;93810.19;5031749;28;20479;-63
2023/03/15 09:02:27;;;;;;;1.10;1.00;;;;;;;16.35;27.33;93818.78;5031218;28;20444;-63
2023/03/15 09:04:54;;;;;;;0.40;0.33;;;;;;;16.53;27.10;93813.13;5031789;28;20447;-63
2023/03/15 09:07:21;;;;;;;0.33;0.33;;;;;;;16.78;27.06;93811.47;5030762;28;20452;-63
2023/03/15 09:09:48;;;;;;;2.57;0.37;;;;;;;16.84;26.54;93807.56;5032308;28;20444;-62
2023/03/15 09:12:15;;;;;;;0.93;0.93;;;;;;;16.82;26.53;93801.81;5032646;28;20490;-63
2023/03/15 09:14:42;;;;;;;0.40;0.40;;;;;;;16.78;27.17;93816.75;5032919;28;20477;-62
2023/03/15 09:17:10;;;;;;;0.03;0.03;;;;;;;16.90;26.54;93809.69;5031413;28;21308;-63
2023/03/15 09:19:38;;;;;;;0.20;0.20;;;;;;;16.83;26.79;93803.34;5032684;28;20958;-61
2023/03/15 09:22:06;;;;;;;0.20;0.20;;;;;;;16.99;27.35;93807.75;5030770;28;20440;-62
2023/03/15 09:24:42;;;;;;;0.20;0.20;;;;;;;17.03;26.87;93803.38;5031804;28;20926;-63
2023/03/15 09:27:10;;;;;;;0.30;0.30;;;;;;;16.75;27.64;93812.88;5031224;28;20439;-61
2023/03/15 09:29:37;;;;;;;1.30;1.20;;;;;;;16.38;26.67;93805.72;5031409;28;21116;-62
2023/03/15 09:32:04;;;;;;;4.30;2.30;;;;;;;16.55;27.20;93803.00;5030920;28;20455;-63
2023/03/15 09:34:31;;;;;;;0.90;0.90;;;;;;;16.64;26.66;93806.41;5031169;28;20451;-63
2023/03/15 09:37:07;;;;;;;0.07;0.07;;;;;;;16.34;27.63;93801.38;5019042;28;20513;-63
2023/03/15 09:39:34;;;;;;;0.20;0.20;;;;;;;16.63;27.30;93794.28;5031332;28;20479;-62
2023/03/15 09:42:03;;;;;;;0.10;0.10;;;;;;;16.97;26.61;93794.06;5031385;28;20458;-63
2023/03/15 09:44:47;;;;;;;0.57;0.57;;;;;;;16.81;26.91;93782.50;5088845;27;20338;-61
2023/03/15 09:47:35;;;;;;;0.43;0.43;;;;;;;17.24;27.12;93782.22;5087019;28;20480;-64
2023/03/15 09:50:06;;;;;;;0.40;0.40;;;;;;;17.20;26.60;93779.44;5075567;28;20446;-65
2023/03/15 09:52:39;;;;;;;0.10;0.10;;;;;;;17.22;26.38;93785.19;5090403;28;20815;-62
2023/03/15 09:55:22;;;;;;;0.60;0.43;;;;;;;17.41;25.83;93773.38;5087204;28;20487;-63
2023/03/15 09:57:59;;;;;;;0.30;0.30;;;;;;;17.27;26.93;93764.91;5086300;28;20459;-63
2023/03/15 10:00:32;;;;;;;0.00;0.00;;;;;;;17.40;26.62;93766.50;5086682;28;20456;-63
2023/03/15 10:03:05;;;;;;;0.10;0.10;;;;;;;17.20;26.34;93766.22;5086533;28;20481;-62
2023/03/15 10:05:40;;;;;;;1.60;1.20;;;;;;;17.36;26.86;93770.91;5086505;28;20472;-61
2023/03/15 10:08:17;;;;;;;1.40;0.93;;;;;;;17.38;26.83;93774.78;5072329;28;20460;-63
2023/03/15 10:10:55;;;;;;;0.50;0.50;;;;;;;17.37;26.76;93775.13;5085894;28;20475;-64
2023/03/15 10:13:44;;;;;;;0.50;0.50;;;;;;;17.39;26.16;93772.91;5086726;28;20441;-64
2023/03/15 10:16:17;;;;;;;1.50;1.40;;;;;;;17.41;26.77;93768.09;5073750;28;20448;-65
2023/03/15 10:18:47;;;;;;;0.47;0.47;;;;;;;17.30;26.59;93770.31;5086668;28;20441;-62
2023/03/15 10:21:45;;;;;;;0.00;0.00;;;;;;;17.38;26.75;93779.31;5085505;28;20469;-64
2023/03/15 10:24:19;;;;;;;0.43;0.40;;;;;;;17.69;26.04;93771.75;5073658;28;20488;-63
2023/03/15 10:26:49;;;;;;;0.07;0.07;;;;;;;17.22;26.00;93769.28;5085750;28;20501;-64
2023/03/15 10:29:19;;;;;;;15.17;0.87;;;;;;;17.45;26.20;93775.03;5086314;28;20838;-62
2023/03/15 10:31:46;;;;;;;0.37;0.37;;;;;;;17.05;26.05;93769.44;5085734;28;20502;-63
2023/03/15 10:34:15;;;;;;;0.07;0.07;;;;;;;17.10;25.92;93756.00;5086163;28;20437;-63
2023/03/15 10:36:48;;;;;;;0.00;0.00;;;;;;;17.38;26.53;93753.59;5085328;28;20947;-64
2023/03/15 10:39:16;;;;;;;0.40;0.40;;;;;;;17.57;26.11;93769.06;5086253;28;20448;-64
2023/03/15 10:41:45;;;;;;;0.60;0.60;;;;;;;17.47;26.39;93769.41;5085327;28;20480;-62
2023/03/15 10:44:17;;;;;;;0.00;0.00;;;;;;;17.50;26.07;93763.50;5085567;28;21184;-63
2023/03/15 10:47:00;;;;;;;0.23;0.23;;;;;;;17.20;26.43;93750.34;5085211;28;20468;-62
2023/03/15 10:49:36;;;;;;;0.23;0.23;;;;;;;17.32;26.58;93754.13;5085747;28;20533;-62
2023/03/15 10:52:04;;;;;;;0.10;0.10;;;;;;;17.33;26.54;93753.81;5072076;28;20475;-63
2023/03/15 10:54:33;;;;;;;0.77;0.63;;;;;;;17.53;26.47;93753.03;5080573;28;20449;-63
2023/03/15 10:57:11;;;;;;;0.30;0.30;;;;;;;17.47;26.13;93758.81;5071505;28;20544;-62
2023/03/15 10:59:53;;;;;;;0.00;0.00;;;;;;;17.39;25.67;93757.03;5071616;28;20469;-61
2023/03/15 11:02:23;;;;;;;0.10;0.10;;;;;;;16.27;26.81;93770.16;5071752;28;20968;-63
2023/03/15 11:05:02;;;;;;;0.33;0.33;;;;;;;16.90;26.54;93761.28;5059087;28;20517;-62
2023/03/15 11:07:34;;;;;;;0.20;0.20;;;;;;;16.84;27.15;93763.34;5071582;28;20446;-62
2023/03/15 11:10:05;;;;;;;0.30;0.30;;;;;;;17.06;26.14;93730.53;5072668;28;20505;-63
2023/03/15 11:12:33;;;;;;;0.40;0.40;;;;;;;17.28;26.72;93750.59;5071343;28;21010;-62
2023/03/15 11:15:09;;;;;;;0.23;0.23;;;;;;;17.34;26.37;93743.97;5072220;28;20897;-64
2023/03/15 11:17:43;;;;;;;0.20;0.20;;;;;;;17.35;27.15;93740.25;5071099;28;20453;-63
2023/03/15 11:20:39;;;;;;;0.10;0.10;;;;;;;17.32;26.40;93735.59;5070269;28;20477;-63
2023/03/15 11:23:37;;;;;;;0.20;0.20;;;;;;;17.52;26.37;93745.41;5066558;28;20484;-62
2023/03/15 11:26:05;;;;;;;0.50;0.50;;;;;;;17.44;26.35;93744.38;5060299;28;20852;-62
2023/03/15 11:28:35;;;;;;;14.23;3.70;;;;;;;17.49;26.34;93744.19;5071194;28;20521;-61
2023/03/15 11:31:04;;;;;;;0.63;0.63;;;;;;;17.68;26.32;93743.72;5070923;28;20541;-63
2023/03/15 11:33:40;;;;;;;2.03;1.60;;;;;;;17.49;25.25;93752.13;5071302;28;20445;-62
2023/03/15 11:36:13;;;;;;;0.20;0.20;;;;;;;17.44;26.16;93743.59;5071409;28;20503;-61
2023/03/15 11:38:44;;;;;;;1.07;1.07;;;;;;;17.48;26.50;93733.94;5059596;28;20435;-63
2023/03/15 11:41:40;;;;;;;0.40;0.40;;;;;;;17.44;26.32;93723.19;5070986;28;20449;-61
2023/03/15 11:44:36;;;;;;;0.30;0.30;;;;;;;17.75;25.88;93730.69;5102903;28;20496;-62
2023/03/15 11:47:23;;;;;;;1.90;0.83;;;;;;;17.84;26.34;93737.47;5061837;28;20807;-61
2023/03/15 11:49:52;;;;;;;1.80;0.77;;;;;;;17.70;25.90;93731.66;5058779;28;20445;-63
2023/03/15 11:52:22;;;;;;;0.40;0.40;;;;;;;17.71;25.85;93719.97;5070343;28;21036;-62
2023/03/15 11:54:50;;;;;;;12.73;1.63;;;;;;;17.65;25.52;93717.84;5070860;28;21007;-62
2023/03/15 11:57:37;;;;;;;0.27;0.27;;;;;;;17.82;25.53;93723.78;5070583;28;20533;-62
2023/03/15 12:00:20;;;;;;;0.20;0.20;;;;;;;17.91;26.23;93721.78;5058155;28;20941;-61
2023/03/15 12:02:49;;;;;;;0.10;0.10;;;;;;;18.01;25.92;93720.59;5070354;28;20477;-63
2023/03/15 12:05:52;;;;;;;0.07;0.07;;;;;;;18.17;25.41;93730.22;5071100;28;20452;-63
2023/03/15 12:08:50;;;;;;;1.10;1.07;;;;;;;17.94;25.83;93725.66;5060042;28;20452;-63
2023/03/15 12:11:20;;;;;;;0.10;0.10;;;;;;;18.04;25.73;93709.34;5057607;28;20442;-61
2023/03/15 12:13:59;;;;;;;0.10;0.10;;;;;;;17.88;26.04;93705.78;5072221;28;20461;-63
2023/03/15 12:16:36;;;;;;;0.30;0.30;;;;;;;17.83;25.84;93698.03;5070064;28;20954;-62
2023/03/15 12:19:14;;;;;;;0.40;0.40;;;;;;;18.08;25.58;93715.53;5070448;28;20941;-62